sensor_id;sensor_type;location;lat;lon;timestamp;P1;durP1;ratioP1;P2;durP2;ratioP2
9974;SDS011;5028;50.974;4.968;2023-09-30T00:01:10;8.83;;;7.63;;
9974;SDS011;5028;50.974;4.968;2023-09-30T00:03:41;9.13;;;8.17;;
9974;SDS011;5028;50.974;4.968;2023-09-30T00:06:10;10.90;;;8.37;;
9974;SDS011;5028;50.974;4.968;2023-09-30T00:08:39;9.50;;;8.23;;
9974;SDS011;5028;50.974;4.968;2023-09-30T00:11:10;8.70;;;7.73;;
9974;SDS011;5028;50.974;4.968;2023-09-30T00:13:39;11.20;;;8.20;;
9974;SDS011;5028;50.974;4.968;2023-09-30T00:16:07;11.30;;;7.83;;
9974;SDS011;5028;50.974;4.968;2023-09-30T00:18:37;9.63;;;7.40;;
9974;SDS011;5028;50.974;4.968;2023-09-30T00:21:06;9.73;;;7.20;;
9974;SDS011;5028;50.974;4.968;2023-09-30T00:23:35;13.07;;;7.63;;
9974;SDS011;5028;50.974;4.968;2023-09-30T00:26:04;9.80;;;7.70;;
9974;SDS011;5028;50.974;4.968;2023-09-30T00:28:33;8.13;;;7.33;;
9974;SDS011;5028;50.974;4.968;2023-09-30T00:31:05;9.27;;;7.67;;
9974;SDS011;5028;50.974;4.968;2023-09-30T00:33:38;9.50;;;7.80;;
9974;SDS011;5028;50.974;4.968;2023-09-30T00:36:07;9.57;;;7.67;;
9974;SDS011;5028;50.974;4.968;2023-09-30T00:38:36;9.20;;;7.33;;
9974;SDS011;5028;50.974;4.968;2023-09-30T00:41:05;7.70;;;6.87;;
9974;SDS011;5028;50.974;4.968;2023-09-30T00:43:34;10.50;;;6.77;;
9974;SDS011;5028;50.974;4.968;2023-09-30T00:46:06;8.03;;;7.20;;
9974;SDS011;5028;50.974;4.968;2023-09-30T00:48:45;7.93;;;6.50;;
9974;SDS011;5028;50.974;4.968;2023-09-30T00:51:15;9.73;;;6.47;;
9974;SDS011;5028;50.974;4.968;2023-09-30T00:53:43;10.37;;;6.43;;
9974;SDS011;5028;50.974;4.968;2023-09-30T00:56:12;7.70;;;5.50;;
9974;SDS011;5028;50.974;4.968;2023-09-30T00:58:42;8.13;;;5.83;;
9974;SDS011;5028;50.974;4.968;2023-09-30T01:01:11;9.00;;;6.20;;
9974;SDS011;5028;50.974;4.968;2023-09-30T01:03:40;8.30;;;5.90;;
9974;SDS011;5028;50.974;4.968;2023-09-30T01:06:10;7.37;;;5.63;;
9974;SDS011;5028;50.974;4.968;2023-09-30T01:08:39;9.07;;;6.10;;
9974;SDS011;5028;50.974;4.968;2023-09-30T01:11:08;7.93;;;5.27;;
9974;SDS011;5028;50.974;4.968;2023-09-30T01:13:40;9.47;;;5.90;;
9974;SDS011;5028;50.974;4.968;2023-09-30T01:16:10;6.57;;;5.40;;
9974;SDS011;5028;50.974;4.968;2023-09-30T01:18:39;7.73;;;5.80;;
9974;SDS011;5028;50.974;4.968;2023-09-30T01:21:11;10.03;;;5.47;;
9974;SDS011;5028;50.974;4.968;2023-09-30T01:23:43;9.00;;;5.77;;
9974;SDS011;5028;50.974;4.968;2023-09-30T01:26:13;9.27;;;6.00;;
9974;SDS011;5028;50.974;4.968;2023-09-30T01:28:42;6.43;;;5.50;;
9974;SDS011;5028;50.974;4.968;2023-09-30T01:31:11;7.40;;;5.37;;
9974;SDS011;5028;50.974;4.968;2023-09-30T01:33:40;7.20;;;5.53;;
9974;SDS011;5028;50.974;4.968;2023-09-30T01:36:08;9.00;;;5.83;;
9974;SDS011;5028;50.974;4.968;2023-09-30T01:38:37;8.80;;;5.27;;
9974;SDS011;5028;50.974;4.968;2023-09-30T01:41:09;7.10;;;5.37;;
9974;SDS011;5028;50.974;4.968;2023-09-30T01:43:38;7.60;;;5.27;;
9974;SDS011;5028;50.974;4.968;2023-09-30T01:46:06;6.90;;;4.97;;
9974;SDS011;5028;50.974;4.968;2023-09-30T01:48:35;7.00;;;4.90;;
9974;SDS011;5028;50.974;4.968;2023-09-30T01:51:03;7.87;;;5.20;;
9974;SDS011;5028;50.974;4.968;2023-09-30T01:53:33;6.73;;;5.00;;
9974;SDS011;5028;50.974;4.968;2023-09-30T01:56:02;8.97;;;5.37;;
9974;SDS011;5028;50.974;4.968;2023-09-30T01:58:32;6.17;;;4.87;;
9974;SDS011;5028;50.974;4.968;2023-09-30T02:01:02;6.53;;;4.93;;
9974;SDS011;5028;50.974;4.968;2023-09-30T02:03:31;10.53;;;5.60;;
9974;SDS011;5028;50.974;4.968;2023-09-30T02:06:00;7.10;;;4.60;;
9974;SDS011;5028;50.974;4.968;2023-09-30T02:08:30;6.40;;;4.90;;
9974;SDS011;5028;50.974;4.968;2023-09-30T02:10:59;7.50;;;4.83;;
9974;SDS011;5028;50.974;4.968;2023-09-30T02:13:28;6.27;;;4.67;;
9974;SDS011;5028;50.974;4.968;2023-09-30T02:16:01;6.70;;;5.30;;
9974;SDS011;5028;50.974;4.968;2023-09-30T02:18:29;11.27;;;4.80;;
9974;SDS011;5028;50.974;4.968;2023-09-30T02:20:59;6.07;;;4.80;;
9974;SDS011;5028;50.974;4.968;2023-09-30T02:23:27;11.00;;;5.40;;
9974;SDS011;5028;50.974;4.968;2023-09-30T02:25:56;6.87;;;5.70;;
9974;SDS011;5028;50.974;4.968;2023-09-30T02:28:24;7.63;;;5.37;;
9974;SDS011;5028;50.974;4.968;2023-09-30T02:30:53;8.27;;;5.87;;
9974;SDS011;5028;50.974;4.968;2023-09-30T02:33:23;9.93;;;6.17;;
9974;SDS011;5028;50.974;4.968;2023-09-30T02:35:52;7.23;;;5.60;;
9974;SDS011;5028;50.974;4.968;2023-09-30T02:38:21;7.03;;;5.97;;
9974;SDS011;5028;50.974;4.968;2023-09-30T02:40:49;7.90;;;5.80;;
9974;SDS011;5028;50.974;4.968;2023-09-30T02:43:18;7.73;;;5.97;;
9974;SDS011;5028;50.974;4.968;2023-09-30T02:45:47;7.57;;;6.17;;
9974;SDS011;5028;50.974;4.968;2023-09-30T02:48:16;9.23;;;6.03;;
9974;SDS011;5028;50.974;4.968;2023-09-30T02:50:46;8.17;;;6.27;;
9974;SDS011;5028;50.974;4.968;2023-09-30T02:53:15;6.57;;;5.87;;
9974;SDS011;5028;50.974;4.968;2023-09-30T02:55:43;6.43;;;5.77;;
9974;SDS011;5028;50.974;4.968;2023-09-30T02:58:12;10.37;;;6.50;;
9974;SDS011;5028;50.974;4.968;2023-09-30T03:00:41;8.87;;;6.37;;
9974;SDS011;5028;50.974;4.968;2023-09-30T03:03:10;9.43;;;6.60;;
9974;SDS011;5028;50.974;4.968;2023-09-30T03:05:38;7.77;;;6.30;;
9974;SDS011;5028;50.974;4.968;2023-09-30T03:08:09;7.33;;;6.60;;
9974;SDS011;5028;50.974;4.968;2023-09-30T03:10:37;7.70;;;5.97;;
9974;SDS011;5028;50.974;4.968;2023-09-30T03:13:07;10.43;;;6.47;;
9974;SDS011;5028;50.974;4.968;2023-09-30T03:15:36;9.47;;;6.67;;
9974;SDS011;5028;50.974;4.968;2023-09-30T03:18:05;9.80;;;6.87;;
9974;SDS011;5028;50.974;4.968;2023-09-30T03:20:34;9.03;;;6.60;;
9974;SDS011;5028;50.974;4.968;2023-09-30T03:23:08;11.00;;;6.57;;
9974;SDS011;5028;50.974;4.968;2023-09-30T03:25:38;7.23;;;6.43;;
9974;SDS011;5028;50.974;4.968;2023-09-30T03:28:08;9.07;;;6.93;;
9974;SDS011;5028;50.974;4.968;2023-09-30T03:30:37;8.77;;;7.00;;
9974;SDS011;5028;50.974;4.968;2023-09-30T03:33:08;9.07;;;6.90;;
9974;SDS011;5028;50.974;4.968;2023-09-30T03:35:36;8.43;;;7.50;;
9974;SDS011;5028;50.974;4.968;2023-09-30T03:38:05;11.37;;;8.03;;
9974;SDS011;5028;50.974;4.968;2023-09-30T03:40:37;9.37;;;8.37;;
9974;SDS011;5028;50.974;4.968;2023-09-30T03:43:06;9.63;;;7.77;;
9974;SDS011;5028;50.974;4.968;2023-09-30T03:45:37;9.63;;;8.07;;
9974;SDS011;5028;50.974;4.968;2023-09-30T03:48:06;10.87;;;7.80;;
9974;SDS011;5028;50.974;4.968;2023-09-30T03:50:36;10.63;;;8.27;;
9974;SDS011;5028;50.974;4.968;2023-09-30T03:53:05;10.73;;;7.67;;
9974;SDS011;5028;50.974;4.968;2023-09-30T03:55:35;9.53;;;8.13;;
9974;SDS011;5028;50.974;4.968;2023-09-30T03:58:05;10.90;;;8.30;;
9974;SDS011;5028;50.974;4.968;2023-09-30T04:00:33;9.60;;;8.20;;
9974;SDS011;5028;50.974;4.968;2023-09-30T04:03:03;10.00;;;8.60;;
9974;SDS011;5028;50.974;4.968;2023-09-30T04:05:32;11.83;;;8.47;;
9974;SDS011;5028;50.974;4.968;2023-09-30T04:08:03;10.00;;;8.63;;
9974;SDS011;5028;50.974;4.968;2023-09-30T04:10:32;11.17;;;9.10;;
9974;SDS011;5028;50.974;4.968;2023-09-30T04:13:01;11.00;;;8.77;;
9974;SDS011;5028;50.974;4.968;2023-09-30T04:15:32;10.23;;;8.43;;
9974;SDS011;5028;50.974;4.968;2023-09-30T04:18:03;12.07;;;8.40;;
9974;SDS011;5028;50.974;4.968;2023-09-30T04:20:33;12.70;;;8.57;;
9974;SDS011;5028;50.974;4.968;2023-09-30T04:23:02;10.13;;;8.57;;
9974;SDS011;5028;50.974;4.968;2023-09-30T04:25:31;12.90;;;8.77;;
9974;SDS011;5028;50.974;4.968;2023-09-30T04:28:00;9.60;;;8.57;;
9974;SDS011;5028;50.974;4.968;2023-09-30T04:30:32;11.27;;;8.67;;
9974;SDS011;5028;50.974;4.968;2023-09-30T04:33:01;13.03;;;8.17;;
9974;SDS011;5028;50.974;4.968;2023-09-30T04:35:31;10.43;;;8.43;;
9974;SDS011;5028;50.974;4.968;2023-09-30T04:38:01;13.53;;;8.50;;
9974;SDS011;5028;50.974;4.968;2023-09-30T04:40:31;11.43;;;8.20;;
9974;SDS011;5028;50.974;4.968;2023-09-30T04:43:00;11.47;;;7.93;;
9974;SDS011;5028;50.974;4.968;2023-09-30T04:45:29;12.00;;;8.47;;
9974;SDS011;5028;50.974;4.968;2023-09-30T04:47:59;11.37;;;7.80;;
9974;SDS011;5028;50.974;4.968;2023-09-30T04:50:28;11.17;;;8.77;;
9974;SDS011;5028;50.974;4.968;2023-09-30T04:52:57;10.93;;;9.23;;
9974;SDS011;5028;50.974;4.968;2023-09-30T04:55:29;13.70;;;9.40;;
9974;SDS011;5028;50.974;4.968;2023-09-30T04:57:57;10.60;;;9.50;;
9974;SDS011;5028;50.974;4.968;2023-09-30T05:00:26;13.53;;;11.70;;
9974;SDS011;5028;50.974;4.968;2023-09-30T05:02:58;13.73;;;11.50;;
9974;SDS011;5028;50.974;4.968;2023-09-30T05:05:27;12.17;;;10.17;;
9974;SDS011;5028;50.974;4.968;2023-09-30T05:07:56;16.23;;;10.40;;
9974;SDS011;5028;50.974;4.968;2023-09-30T05:10:25;14.33;;;10.97;;
9974;SDS011;5028;50.974;4.968;2023-09-30T05:12:55;14.27;;;11.77;;
9974;SDS011;5028;50.974;4.968;2023-09-30T05:15:23;14.50;;;11.53;;
9974;SDS011;5028;50.974;4.968;2023-09-30T05:17:52;12.43;;;11.07;;
9974;SDS011;5028;50.974;4.968;2023-09-30T05:20:23;12.97;;;10.90;;
9974;SDS011;5028;50.974;4.968;2023-09-30T05:22:52;11.80;;;10.63;;
9974;SDS011;5028;50.974;4.968;2023-09-30T05:25:21;13.90;;;10.87;;
9974;SDS011;5028;50.974;4.968;2023-09-30T05:27:53;14.43;;;11.13;;
9974;SDS011;5028;50.974;4.968;2023-09-30T05:30:22;15.43;;;11.50;;
9974;SDS011;5028;50.974;4.968;2023-09-30T05:32:51;14.73;;;11.47;;
9974;SDS011;5028;50.974;4.968;2023-09-30T05:35:22;15.60;;;11.70;;
9974;SDS011;5028;50.974;4.968;2023-09-30T05:37:50;14.03;;;11.60;;
9974;SDS011;5028;50.974;4.968;2023-09-30T05:40:20;12.50;;;10.57;;
9974;SDS011;5028;50.974;4.968;2023-09-30T05:42:52;15.57;;;11.33;;
9974;SDS011;5028;50.974;4.968;2023-09-30T05:45:21;13.63;;;11.40;;
9974;SDS011;5028;50.974;4.968;2023-09-30T05:47:53;14.07;;;11.70;;
9974;SDS011;5028;50.974;4.968;2023-09-30T05:50:24;13.13;;;11.00;;
9974;SDS011;5028;50.974;4.968;2023-09-30T05:52:54;16.00;;;12.07;;
9974;SDS011;5028;50.974;4.968;2023-09-30T05:55:23;14.63;;;11.80;;
9974;SDS011;5028;50.974;4.968;2023-09-30T05:57:54;13.63;;;11.73;;
9974;SDS011;5028;50.974;4.968;2023-09-30T06:00:23;15.90;;;12.40;;
9974;SDS011;5028;50.974;4.968;2023-09-30T06:02:56;15.27;;;11.23;;
9974;SDS011;5028;50.974;4.968;2023-09-30T06:05:27;15.80;;;11.50;;
9974;SDS011;5028;50.974;4.968;2023-09-30T06:07:58;16.03;;;10.47;;
9974;SDS011;5028;50.974;4.968;2023-09-30T06:10:30;16.80;;;11.13;;
9974;SDS011;5028;50.974;4.968;2023-09-30T06:12:58;13.13;;;10.73;;
9974;SDS011;5028;50.974;4.968;2023-09-30T06:15:29;13.73;;;10.93;;
9974;SDS011;5028;50.974;4.968;2023-09-30T06:17:58;14.23;;;10.57;;
9974;SDS011;5028;50.974;4.968;2023-09-30T06:20:28;19.50;;;12.27;;
9974;SDS011;5028;50.974;4.968;2023-09-30T06:22:57;18.23;;;12.67;;
9974;SDS011;5028;50.974;4.968;2023-09-30T06:25:27;16.77;;;12.53;;
9974;SDS011;5028;50.974;4.968;2023-09-30T06:27:57;16.70;;;11.93;;
9974;SDS011;5028;50.974;4.968;2023-09-30T06:30:26;13.87;;;11.67;;
9974;SDS011;5028;50.974;4.968;2023-09-30T06:32:58;13.33;;;11.93;;
9974;SDS011;5028;50.974;4.968;2023-09-30T06:35:29;18.80;;;12.10;;
9974;SDS011;5028;50.974;4.968;2023-09-30T06:38:04;15.03;;;11.70;;
9974;SDS011;5028;50.974;4.968;2023-09-30T06:40:35;13.90;;;11.50;;
9974;SDS011;5028;50.974;4.968;2023-09-30T06:43:06;16.87;;;11.93;;
9974;SDS011;5028;50.974;4.968;2023-09-30T06:45:36;17.43;;;12.23;;
9974;SDS011;5028;50.974;4.968;2023-09-30T06:48:09;14.87;;;11.60;;
9974;SDS011;5028;50.974;4.968;2023-09-30T06:50:42;15.50;;;11.50;;
9974;SDS011;5028;50.974;4.968;2023-09-30T06:53:12;14.13;;;11.80;;
9974;SDS011;5028;50.974;4.968;2023-09-30T06:55:42;15.37;;;11.87;;
9974;SDS011;5028;50.974;4.968;2023-09-30T06:58:11;16.30;;;12.00;;
9974;SDS011;5028;50.974;4.968;2023-09-30T07:00:41;16.83;;;11.67;;
9974;SDS011;5028;50.974;4.968;2023-09-30T07:03:09;17.73;;;12.30;;
9974;SDS011;5028;50.974;4.968;2023-09-30T07:05:39;20.13;;;12.07;;
9974;SDS011;5028;50.974;4.968;2023-09-30T07:08:09;15.93;;;11.80;;
9974;SDS011;5028;50.974;4.968;2023-09-30T07:10:38;17.03;;;11.57;;
9974;SDS011;5028;50.974;4.968;2023-09-30T07:13:07;14.47;;;11.47;;
9974;SDS011;5028;50.974;4.968;2023-09-30T07:15:35;16.07;;;11.60;;
9974;SDS011;5028;50.974;4.968;2023-09-30T07:18:04;15.87;;;11.20;;
9974;SDS011;5028;50.974;4.968;2023-09-30T07:20:33;15.20;;;11.23;;
9974;SDS011;5028;50.974;4.968;2023-09-30T07:23:04;16.40;;;11.20;;
9974;SDS011;5028;50.974;4.968;2023-09-30T07:25:45;14.87;;;10.83;;
9974;SDS011;5028;50.974;4.968;2023-09-30T07:28:14;16.53;;;11.47;;
9974;SDS011;5028;50.974;4.968;2023-09-30T07:30:43;15.63;;;10.83;;
9974;SDS011;5028;50.974;4.968;2023-09-30T07:33:12;14.13;;;11.13;;
9974;SDS011;5028;50.974;4.968;2023-09-30T07:35:43;15.67;;;10.80;;
9974;SDS011;5028;50.974;4.968;2023-09-30T07:38:13;16.20;;;10.47;;
9974;SDS011;5028;50.974;4.968;2023-09-30T07:40:42;15.07;;;10.07;;
9974;SDS011;5028;50.974;4.968;2023-09-30T07:43:10;15.40;;;10.67;;
9974;SDS011;5028;50.974;4.968;2023-09-30T07:45:39;17.50;;;10.83;;
9974;SDS011;5028;50.974;4.968;2023-09-30T07:48:11;14.77;;;10.23;;
9974;SDS011;5028;50.974;4.968;2023-09-30T07:50:40;13.13;;;9.63;;
9974;SDS011;5028;50.974;4.968;2023-09-30T07:53:09;16.73;;;10.30;;
9974;SDS011;5028;50.974;4.968;2023-09-30T07:55:41;17.70;;;10.90;;
9974;SDS011;5028;50.974;4.968;2023-09-30T07:58:10;15.30;;;10.60;;
9974;SDS011;5028;50.974;4.968;2023-09-30T08:00:39;18.30;;;10.60;;
9974;SDS011;5028;50.974;4.968;2023-09-30T08:03:11;14.43;;;10.00;;
9974;SDS011;5028;50.974;4.968;2023-09-30T08:05:40;16.67;;;10.57;;
9974;SDS011;5028;50.974;4.968;2023-09-30T08:08:09;13.30;;;9.77;;
9974;SDS011;5028;50.974;4.968;2023-09-30T08:10:37;16.90;;;10.00;;
9974;SDS011;5028;50.974;4.968;2023-09-30T08:13:08;13.40;;;9.87;;
9974;SDS011;5028;50.974;4.968;2023-09-30T08:15:36;17.27;;;10.50;;
9974;SDS011;5028;50.974;4.968;2023-09-30T08:18:05;13.53;;;9.43;;
9974;SDS011;5028;50.974;4.968;2023-09-30T08:20:35;16.20;;;9.33;;
9974;SDS011;5028;50.974;4.968;2023-09-30T08:23:04;15.57;;;9.67;;
9974;SDS011;5028;50.974;4.968;2023-09-30T08:25:33;16.13;;;9.00;;
9974;SDS011;5028;50.974;4.968;2023-09-30T08:28:02;14.40;;;9.47;;
9974;SDS011;5028;50.974;4.968;2023-09-30T08:30:34;14.43;;;9.23;;
9974;SDS011;5028;50.974;4.968;2023-09-30T08:33:03;15.63;;;9.07;;
9974;SDS011;5028;50.974;4.968;2023-09-30T08:35:35;14.10;;;8.73;;
9974;SDS011;5028;50.974;4.968;2023-09-30T08:38:04;13.33;;;8.67;;
9974;SDS011;5028;50.974;4.968;2023-09-30T08:40:32;15.77;;;8.50;;
9974;SDS011;5028;50.974;4.968;2023-09-30T08:43:01;13.97;;;8.40;;
9974;SDS011;5028;50.974;4.968;2023-09-30T08:45:34;11.73;;;8.03;;
9974;SDS011;5028;50.974;4.968;2023-09-30T08:48:07;15.60;;;7.80;;
9974;SDS011;5028;50.974;4.968;2023-09-30T08:50:37;15.37;;;8.17;;
9974;SDS011;5028;50.974;4.968;2023-09-30T08:53:09;12.27;;;7.63;;
9974;SDS011;5028;50.974;4.968;2023-09-30T08:55:39;11.50;;;7.70;;
9974;SDS011;5028;50.974;4.968;2023-09-30T08:58:11;10.27;;;7.13;;
9974;SDS011;5028;50.974;4.968;2023-09-30T09:00:42;12.57;;;8.07;;
9974;SDS011;5028;50.974;4.968;2023-09-30T09:03:12;12.17;;;7.90;;
9974;SDS011;5028;50.974;4.968;2023-09-30T09:05:40;13.53;;;7.40;;
9974;SDS011;5028;50.974;4.968;2023-09-30T09:08:09;11.23;;;7.60;;
9974;SDS011;5028;50.974;4.968;2023-09-30T09:10:52;13.63;;;7.80;;
9974;SDS011;5028;50.974;4.968;2023-09-30T09:13:23;10.97;;;7.13;;
9974;SDS011;5028;50.974;4.968;2023-09-30T09:18:38;14.13;;;8.07;;
9974;SDS011;5028;50.974;4.968;2023-09-30T09:21:07;11.73;;;7.83;;
9974;SDS011;5028;50.974;4.968;2023-09-30T09:23:39;11.53;;;7.87;;
9974;SDS011;5028;50.974;4.968;2023-09-30T09:26:09;11.53;;;8.07;;
9974;SDS011;5028;50.974;4.968;2023-09-30T09:28:38;10.60;;;7.67;;
9974;SDS011;5028;50.974;4.968;2023-09-30T09:31:20;10.17;;;8.17;;
9974;SDS011;5028;50.974;4.968;2023-09-30T09:33:50;11.03;;;7.33;;
9974;SDS011;5028;50.974;4.968;2023-09-30T09:36:20;10.20;;;7.30;;
9974;SDS011;5028;50.974;4.968;2023-09-30T09:38:49;12.07;;;8.50;;
9974;SDS011;5028;50.974;4.968;2023-09-30T09:41:20;10.20;;;7.90;;
9974;SDS011;5028;50.974;4.968;2023-09-30T09:43:50;10.80;;;7.63;;
9974;SDS011;5028;50.974;4.968;2023-09-30T09:46:20;10.40;;;7.70;;
9974;SDS011;5028;50.974;4.968;2023-09-30T09:48:49;9.47;;;6.90;;
9974;SDS011;5028;50.974;4.968;2023-09-30T09:51:18;10.13;;;6.90;;
9974;SDS011;5028;50.974;4.968;2023-09-30T09:53:48;9.77;;;7.13;;
9974;SDS011;5028;50.974;4.968;2023-09-30T09:56:18;9.27;;;7.10;;
9974;SDS011;5028;50.974;4.968;2023-09-30T09:58:48;12.00;;;8.03;;
9974;SDS011;5028;50.974;4.968;2023-09-30T10:01:18;11.70;;;10.50;;
9974;SDS011;5028;50.974;4.968;2023-09-30T10:03:49;13.33;;;9.80;;
9974;SDS011;5028;50.974;4.968;2023-09-30T10:06:18;13.30;;;12.00;;
9974;SDS011;5028;50.974;4.968;2023-09-30T10:08:48;15.43;;;13.83;;
9974;SDS011;5028;50.974;4.968;2023-09-30T10:11:19;15.90;;;14.30;;
9974;SDS011;5028;50.974;4.968;2023-09-30T10:13:55;17.03;;;15.40;;
9974;SDS011;5028;50.974;4.968;2023-09-30T10:19:24;16.10;;;14.50;;
9974;SDS011;5028;50.974;4.968;2023-09-30T10:24:53;16.80;;;13.07;;
9974;SDS011;5028;50.974;4.968;2023-09-30T10:27:31;16.13;;;13.83;;
9974;SDS011;5028;50.974;4.968;2023-09-30T10:30:07;14.53;;;13.13;;
9974;SDS011;5028;50.974;4.968;2023-09-30T10:35:48;15.03;;;12.13;;
9974;SDS011;5028;50.974;4.968;2023-09-30T10:41:04;14.00;;;10.70;;
9974;SDS011;5028;50.974;4.968;2023-09-30T10:43:35;11.77;;;10.67;;
9974;SDS011;5028;50.974;4.968;2023-09-30T10:49:17;11.67;;;10.57;;
9974;SDS011;5028;50.974;4.968;2023-09-30T10:52:04;14.13;;;10.87;;
9974;SDS011;5028;50.974;4.968;2023-09-30T10:54:33;11.97;;;10.73;;
9974;SDS011;5028;50.974;4.968;2023-09-30T10:57:03;10.83;;;9.73;;
9974;SDS011;5028;50.974;4.968;2023-09-30T10:59:32;10.77;;;9.67;;
9974;SDS011;5028;50.974;4.968;2023-09-30T11:02:02;11.57;;;10.37;;
9974;SDS011;5028;50.974;4.968;2023-09-30T11:04:44;11.57;;;10.00;;
9974;SDS011;5028;50.974;4.968;2023-09-30T11:07:18;10.23;;;7.53;;
9974;SDS011;5028;50.974;4.968;2023-09-30T11:09:53;10.93;;;7.70;;
9974;SDS011;5028;50.974;4.968;2023-09-30T11:12:22;10.43;;;8.60;;
9974;SDS011;5028;50.974;4.968;2023-09-30T11:14:58;11.27;;;9.70;;
9974;SDS011;5028;50.974;4.968;2023-09-30T11:17:28;9.87;;;8.83;;
9974;SDS011;5028;50.974;4.968;2023-09-30T11:19:57;10.43;;;9.33;;
9974;SDS011;5028;50.974;4.968;2023-09-30T11:22:29;10.10;;;9.10;;
9974;SDS011;5028;50.974;4.968;2023-09-30T11:24:57;10.80;;;9.80;;
9974;SDS011;5028;50.974;4.968;2023-09-30T11:27:27;10.93;;;9.30;;
9974;SDS011;5028;50.974;4.968;2023-09-30T11:29:58;11.50;;;9.60;;
9974;SDS011;5028;50.974;4.968;2023-09-30T11:32:27;10.23;;;9.23;;
9974;SDS011;5028;50.974;4.968;2023-09-30T11:34:57;8.93;;;6.87;;
9974;SDS011;5028;50.974;4.968;2023-09-30T11:37:32;9.00;;;6.27;;
9974;SDS011;5028;50.974;4.968;2023-09-30T11:40:11;8.67;;;6.47;;
9974;SDS011;5028;50.974;4.968;2023-09-30T11:43:06;9.30;;;7.03;;
9974;SDS011;5028;50.974;4.968;2023-09-30T11:45:35;7.67;;;5.90;;
9974;SDS011;5028;50.974;4.968;2023-09-30T11:48:15;7.10;;;4.93;;
9974;SDS011;5028;50.974;4.968;2023-09-30T11:50:46;9.20;;;5.73;;
9974;SDS011;5028;50.974;4.968;2023-09-30T11:53:17;9.40;;;5.53;;
9974;SDS011;5028;50.974;4.968;2023-09-30T11:55:47;8.13;;;5.30;;
9974;SDS011;5028;50.974;4.968;2023-09-30T11:58:16;8.17;;;5.67;;
9974;SDS011;5028;50.974;4.968;2023-09-30T12:00:46;5.93;;;3.50;;
9974;SDS011;5028;50.974;4.968;2023-09-30T12:03:17;5.93;;;3.40;;
9974;SDS011;5028;50.974;4.968;2023-09-30T12:05:47;4.43;;;2.93;;
9974;SDS011;5028;50.974;4.968;2023-09-30T12:08:17;6.73;;;3.33;;
9974;SDS011;5028;50.974;4.968;2023-09-30T12:10:46;4.10;;;3.33;;
9974;SDS011;5028;50.974;4.968;2023-09-30T12:13:15;6.93;;;3.40;;
9974;SDS011;5028;50.974;4.968;2023-09-30T12:15:45;18.57;;;5.27;;
9974;SDS011;5028;50.974;4.968;2023-09-30T12:18:15;7.60;;;3.43;;
9974;SDS011;5028;50.974;4.968;2023-09-30T12:20:50;5.70;;;3.67;;
9974;SDS011;5028;50.974;4.968;2023-09-30T12:23:21;5.33;;;3.63;;
9974;SDS011;5028;50.974;4.968;2023-09-30T12:25:50;6.03;;;3.57;;
9974;SDS011;5028;50.974;4.968;2023-09-30T12:28:38;6.70;;;3.70;;
9974;SDS011;5028;50.974;4.968;2023-09-30T12:31:07;5.70;;;3.53;;
9974;SDS011;5028;50.974;4.968;2023-09-30T12:33:37;6.37;;;3.20;;
9974;SDS011;5028;50.974;4.968;2023-09-30T12:36:06;4.33;;;2.70;;
9974;SDS011;5028;50.974;4.968;2023-09-30T12:38:37;5.10;;;2.60;;
9974;SDS011;5028;50.974;4.968;2023-09-30T12:41:06;6.47;;;2.97;;
9974;SDS011;5028;50.974;4.968;2023-09-30T12:43:35;5.23;;;2.90;;
9974;SDS011;5028;50.974;4.968;2023-09-30T12:46:03;6.30;;;2.70;;
9974;SDS011;5028;50.974;4.968;2023-09-30T12:48:32;6.33;;;2.93;;
9974;SDS011;5028;50.974;4.968;2023-09-30T12:51:01;5.93;;;2.63;;
9974;SDS011;5028;50.974;4.968;2023-09-30T12:53:33;4.63;;;2.47;;
9974;SDS011;5028;50.974;4.968;2023-09-30T12:56:03;5.70;;;2.87;;
9974;SDS011;5028;50.974;4.968;2023-09-30T12:58:32;5.70;;;2.53;;
9974;SDS011;5028;50.974;4.968;2023-09-30T13:01:01;4.40;;;2.80;;
9974;SDS011;5028;50.974;4.968;2023-09-30T13:03:47;4.63;;;2.63;;
9974;SDS011;5028;50.974;4.968;2023-09-30T13:06:17;5.03;;;2.90;;
9974;SDS011;5028;50.974;4.968;2023-09-30T13:08:46;5.67;;;2.93;;
9974;SDS011;5028;50.974;4.968;2023-09-30T13:11:17;4.80;;;2.80;;
9974;SDS011;5028;50.974;4.968;2023-09-30T13:13:46;4.90;;;2.40;;
9974;SDS011;5028;50.974;4.968;2023-09-30T13:16:15;4.37;;;2.60;;
9974;SDS011;5028;50.974;4.968;2023-09-30T13:18:43;5.73;;;2.70;;
9974;SDS011;5028;50.974;4.968;2023-09-30T13:21:12;5.37;;;2.77;;
9974;SDS011;5028;50.974;4.968;2023-09-30T13:23:41;5.20;;;2.90;;
9974;SDS011;5028;50.974;4.968;2023-09-30T13:26:09;4.60;;;2.90;;
9974;SDS011;5028;50.974;4.968;2023-09-30T13:28:39;3.87;;;2.60;;
9974;SDS011;5028;50.974;4.968;2023-09-30T13:31:08;4.13;;;2.37;;
9974;SDS011;5028;50.974;4.968;2023-09-30T13:33:37;6.10;;;2.80;;
9974;SDS011;5028;50.974;4.968;2023-09-30T13:36:06;4.43;;;2.50;;
9974;SDS011;5028;50.974;4.968;2023-09-30T13:38:34;4.73;;;2.73;;
9974;SDS011;5028;50.974;4.968;2023-09-30T13:41:03;3.73;;;2.50;;
9974;SDS011;5028;50.974;4.968;2023-09-30T13:43:32;3.90;;;2.50;;
9974;SDS011;5028;50.974;4.968;2023-09-30T13:46:04;5.37;;;2.50;;
9974;SDS011;5028;50.974;4.968;2023-09-30T13:48:34;4.73;;;2.50;;
9974;SDS011;5028;50.974;4.968;2023-09-30T13:51:04;5.10;;;2.63;;
9974;SDS011;5028;50.974;4.968;2023-09-30T13:53:33;4.13;;;2.30;;
9974;SDS011;5028;50.974;4.968;2023-09-30T13:56:02;5.67;;;2.93;;
9974;SDS011;5028;50.974;4.968;2023-09-30T13:58:31;4.70;;;2.63;;
9974;SDS011;5028;50.974;4.968;2023-09-30T14:01:00;5.23;;;2.73;;
9974;SDS011;5028;50.974;4.968;2023-09-30T14:03:31;4.07;;;2.67;;
9974;SDS011;5028;50.974;4.968;2023-09-30T14:06:00;5.80;;;2.87;;
9974;SDS011;5028;50.974;4.968;2023-09-30T14:08:29;4.30;;;2.63;;
9974;SDS011;5028;50.974;4.968;2023-09-30T14:10:57;3.67;;;2.40;;
9974;SDS011;5028;50.974;4.968;2023-09-30T14:13:26;5.57;;;2.77;;
9974;SDS011;5028;50.974;4.968;2023-09-30T14:15:55;4.90;;;2.40;;
9974;SDS011;5028;50.974;4.968;2023-09-30T14:18:24;5.73;;;2.70;;
9974;SDS011;5028;50.974;4.968;2023-09-30T14:20:54;5.10;;;2.83;;
9974;SDS011;5028;50.974;4.968;2023-09-30T14:23:23;6.87;;;2.80;;
9974;SDS011;5028;50.974;4.968;2023-09-30T14:25:53;6.20;;;2.57;;
9974;SDS011;5028;50.974;4.968;2023-09-30T14:28:22;5.40;;;2.80;;
9974;SDS011;5028;50.974;4.968;2023-09-30T14:30:51;4.00;;;2.50;;
9974;SDS011;5028;50.974;4.968;2023-09-30T14:33:21;6.13;;;3.00;;
9974;SDS011;5028;50.974;4.968;2023-09-30T14:35:50;4.33;;;2.40;;
9974;SDS011;5028;50.974;4.968;2023-09-30T14:38:21;4.40;;;2.37;;
9974;SDS011;5028;50.974;4.968;2023-09-30T14:40:49;5.87;;;2.27;;
9974;SDS011;5028;50.974;4.968;2023-09-30T14:43:18;3.80;;;2.23;;
9974;SDS011;5028;50.974;4.968;2023-09-30T14:45:47;5.10;;;2.60;;
9974;SDS011;5028;50.974;4.968;2023-09-30T14:48:15;4.03;;;2.50;;
9974;SDS011;5028;50.974;4.968;2023-09-30T14:50:47;4.63;;;2.23;;
9974;SDS011;5028;50.974;4.968;2023-09-30T14:53:17;3.47;;;2.10;;
9974;SDS011;5028;50.974;4.968;2023-09-30T14:55:47;4.63;;;2.30;;
9974;SDS011;5028;50.974;4.968;2023-09-30T14:58:17;6.43;;;2.43;;
9974;SDS011;5028;50.974;4.968;2023-09-30T15:00:45;3.93;;;2.50;;
9974;SDS011;5028;50.974;4.968;2023-09-30T15:03:15;6.37;;;2.37;;
9974;SDS011;5028;50.974;4.968;2023-09-30T15:05:43;5.27;;;2.60;;
9974;SDS011;5028;50.974;4.968;2023-09-30T15:08:12;4.10;;;2.17;;
9974;SDS011;5028;50.974;4.968;2023-09-30T15:10:41;4.83;;;2.00;;
9974;SDS011;5028;50.974;4.968;2023-09-30T15:13:13;3.13;;;2.00;;
9974;SDS011;5028;50.974;4.968;2023-09-30T15:15:42;4.23;;;2.20;;
9974;SDS011;5028;50.974;4.968;2023-09-30T15:18:11;5.20;;;2.33;;
9974;SDS011;5028;50.974;4.968;2023-09-30T15:20:40;3.87;;;2.40;;
9974;SDS011;5028;50.974;4.968;2023-09-30T15:23:09;5.30;;;2.73;;
9974;SDS011;5028;50.974;4.968;2023-09-30T15:25:39;4.90;;;2.30;;
9974;SDS011;5028;50.974;4.968;2023-09-30T15:28:09;4.03;;;2.40;;
9974;SDS011;5028;50.974;4.968;2023-09-30T15:30:40;5.50;;;2.23;;
9974;SDS011;5028;50.974;4.968;2023-09-30T15:33:09;5.57;;;2.73;;
9974;SDS011;5028;50.974;4.968;2023-09-30T15:35:37;3.67;;;2.10;;
9974;SDS011;5028;50.974;4.968;2023-09-30T15:38:06;5.60;;;2.63;;
9974;SDS011;5028;50.974;4.968;2023-09-30T15:40:37;5.50;;;2.23;;